createdAt,value
2022-09-20T00:01:34.488Z,16.40
2022-09-20T00:04:05.668Z,16.50
2022-09-20T00:06:34.266Z,16.60
2022-09-20T00:09:03.293Z,16.40
2022-09-20T00:11:33.305Z,16.10
2022-09-20T00:14:02.602Z,16.20
2022-09-20T00:16:32.858Z,16.20
2022-09-20T00:19:04.272Z,16.20
2022-09-20T00:21:34.849Z,16.20
2022-09-20T00:24:02.677Z,16.20
2022-09-20T00:26:30.159Z,16.40
2022-09-20T00:28:58.988Z,16.60
2022-09-20T00:31:26.914Z,16.70
2022-09-20T00:34:14.255Z,16.80
2022-09-20T00:36:41.649Z,16.90
2022-09-20T00:39:12.187Z,17.00
2022-09-20T00:41:39.582Z,17.00
2022-09-20T00:44:48.202Z,16.80
2022-09-20T00:47:38.785Z,16.60
2022-09-20T00:50:11.156Z,16.70
2022-09-20T00:52:39.021Z,16.80
2022-09-20T00:55:08.798Z,17.00
2022-09-20T00:57:38.740Z,17.00
2022-09-20T01:00:10.259Z,17.00
2022-09-20T01:02:42.137Z,16.80
2022-09-20T01:05:44.238Z,16.90
2022-09-20T01:08:12.589Z,17.00
2022-09-20T01:10:39.942Z,17.00
2022-09-20T01:13:08.048Z,16.90
2022-09-20T01:15:43.972Z,16.70
2022-09-20T01:18:13.612Z,16.70
2022-09-20T01:20:44.569Z,16.70
2022-09-20T01:23:29.144Z,16.70
2022-09-20T01:26:26.809Z,16.80
2022-09-20T01:29:10.857Z,16.90
2022-09-20T01:31:46.425Z,16.90
2022-09-20T01:34:31.717Z,16.80
2022-09-20T01:37:19.807Z,16.80
2022-09-20T01:40:01.812Z,16.70
2022-09-20T01:42:38.601Z,16.50
2022-09-20T01:45:14.606Z,16.40
2022-09-20T01:52:13.971Z,16.40
2022-09-20T01:55:07.784Z,16.50
2022-09-20T01:57:46.631Z,16.60
2022-09-20T02:00:19.122Z,16.70
2022-09-20T02:03:04.343Z,16.80
2022-09-20T02:05:48.316Z,16.70
2022-09-20T02:08:33.135Z,16.50
2022-09-20T02:11:09.765Z,16.40
2022-09-20T02:13:40.346Z,16.50
2022-09-20T02:16:23.683Z,16.60
2022-09-20T02:19:33.918Z,16.60
2022-09-20T02:22:13.901Z,16.50
2022-09-20T02:25:25.954Z,16.40
2022-09-20T02:28:14.541Z,16.00
2022-09-20T02:30:56.527Z,15.80
2022-09-20T02:33:51.213Z,15.80
2022-09-20T02:36:21.446Z,15.80
2022-09-20T02:39:11.359Z,15.80
2022-09-20T02:41:41.486Z,15.60
2022-09-20T02:44:29.223Z,15.80
2022-09-20T02:47:07.515Z,15.90
2022-09-20T02:49:49.547Z,16.00
2022-09-20T02:52:22.749Z,15.70
2022-09-20T02:55:01.828Z,15.60
2022-09-20T02:57:50.301Z,15.60
2022-09-20T03:00:26.173Z,15.60
2022-09-20T03:02:53.568Z,15.80
2022-09-20T03:05:43.997Z,15.80
2022-09-20T03:08:49.269Z,16.00
2022-09-20T03:11:46.115Z,16.00
2022-09-20T03:14:29.148Z,15.60
2022-09-20T03:17:21.281Z,15.60
2022-09-20T03:20:11.951Z,15.60
2022-09-20T03:22:42.759Z,15.50
2022-09-20T03:25:34.539Z,15.50
2022-09-20T03:28:26.745Z,15.50
2022-09-20T03:31:09.375Z,15.60
2022-09-20T03:33:51.914Z,15.50
2022-09-20T03:36:29.952Z,15.30
2022-09-20T03:39:22.656Z,15.20
2022-09-20T03:42:02.121Z,15.00
2022-09-20T03:44:59.391Z,15.00
2022-09-20T03:47:48.391Z,15.00
2022-09-20T03:50:47.507Z,15.10
2022-09-20T03:53:46.675Z,15.30
2022-09-20T03:56:35.998Z,15.00
2022-09-20T03:59:31.850Z,14.30
2022-09-20T04:02:14.079Z,14.20
2022-09-20T04:04:51.713Z,14.50
2022-09-20T04:07:37.723Z,14.70
2022-09-20T04:10:30.444Z,14.80
2022-09-20T04:13:10.531Z,14.80
2022-09-20T04:16:06.717Z,14.90
2022-09-20T04:18:51.855Z,14.60
2022-09-20T04:21:24.983Z,14.10
2022-09-20T04:23:55.502Z,14.00
2022-09-20T04:26:26.324Z,13.90
2022-09-20T04:32:16.974Z,13.90
2022-09-20T04:35:17.715Z,14.00
2022-09-20T04:37:45.547Z,14.10
2022-09-20T04:40:18.914Z,14.20
2022-09-20T04:43:10.646Z,14.40
2022-09-20T04:45:51.880Z,14.70
2022-09-20T04:48:57.425Z,14.80
2022-09-20T04:51:30.727Z,14.90
2022-09-20T04:54:09.685Z,14.60
2022-09-20T04:56:58.071Z,14.50
2022-09-20T04:59:54.495Z,14.80
2022-09-20T05:02:37.772Z,15.00
2022-09-20T05:05:41.331Z,15.00
2022-09-20T05:08:45.851Z,14.80
2022-09-20T05:11:19.325Z,14.90
2022-09-20T05:13:58.117Z,15.00
2022-09-20T05:16:44.480Z,14.90
2022-09-20T05:19:26.728Z,14.90
2022-09-20T05:22:17.642Z,15.00
2022-09-20T05:25:08.174Z,15.40
2022-09-20T05:28:05.749Z,15.60
2022-09-20T05:30:55.531Z,15.80
2022-09-20T05:33:31.397Z,15.80
2022-09-20T05:36:09.197Z,15.80
2022-09-20T05:39:38.344Z,16.00
2022-09-20T05:42:40.692Z,16.10
2022-09-20T05:45:24.697Z,16.10
2022-09-20T05:47:53.251Z,16.00
2022-09-20T05:50:26.940Z,15.80
2022-09-20T05:53:23.661Z,15.60
2022-09-20T05:56:14.181Z,15.80
2022-09-20T05:59:13.153Z,16.00
2022-09-20T06:01:46.715Z,16.20
2022-09-20T06:04:21.552Z,16.20
2022-09-20T06:07:09.365Z,16.20
2022-09-20T06:09:45.720Z,16.30
2022-09-20T06:12:31.811Z,16.40
2022-09-20T06:15:41.287Z,16.50
2022-09-20T06:18:34.712Z,16.60
2022-09-20T06:21:18.514Z,16.50
2022-09-20T06:23:46.170Z,16.60
2022-09-20T06:26:26.418Z,16.80
2022-09-20T06:28:59.755Z,17.00
2022-09-20T06:31:27.868Z,17.20
2022-09-20T06:34:00.499Z,17.40
2022-09-20T06:36:50.636Z,17.40
2022-09-20T06:40:03.118Z,17.30
2022-09-20T06:42:31.497Z,17.20
2022-09-20T06:44:59.440Z,17.30
2022-09-20T06:47:27.739Z,17.40
2022-09-20T06:49:56.167Z,17.30
2022-09-20T06:52:23.753Z,17.20
2022-09-20T06:54:54.768Z,17.20
2022-09-20T06:57:36.629Z,17.20
2022-09-20T07:00:10.566Z,17.20
2022-09-20T07:02:37.899Z,17.50
2022-09-20T07:05:08.433Z,17.90
2022-09-20T07:07:35.637Z,18.30
2022-09-20T07:10:06.258Z,18.70
2022-09-20T07:12:35.254Z,19.00
2022-09-20T07:15:03.034Z,19.20
2022-09-20T07:17:31.032Z,19.40
2022-09-20T07:19:58.241Z,19.50
2022-09-20T07:22:26.649Z,19.50
2022-09-20T07:24:54.019Z,19.60
2022-09-20T07:27:21.827Z,19.60
2022-09-20T07:29:49.424Z,19.70
2022-09-20T07:32:17.964Z,19.90
2022-09-20T07:34:45.136Z,20.00
2022-09-20T07:37:12.860Z,20.20
2022-09-20T07:39:40.097Z,20.30
2022-09-20T07:42:07.591Z,20.40
2022-09-20T07:44:34.833Z,20.50
2022-09-20T07:47:02.195Z,20.50
2022-09-20T07:49:30.470Z,20.60
2022-09-20T07:51:58.823Z,20.70
2022-09-20T07:55:40.712Z,20.80
2022-09-20T07:58:10.030Z,20.90
2022-09-20T08:00:39.902Z,21.10
2022-09-20T08:03:08.742Z,21.30
2022-09-20T08:05:36.705Z,21.50
2022-09-20T08:08:03.937Z,21.70
2022-09-20T08:10:32.907Z,21.80
2022-09-20T08:15:49.919Z,21.30
2022-09-20T08:18:17.958Z,21.10
2022-09-20T08:20:45.214Z,21.00
2022-09-20T08:23:23.302Z,21.00
2022-09-20T08:25:51.375Z,21.50
2022-09-20T08:28:18.658Z,21.70
2022-09-20T08:30:48.113Z,21.70
2022-09-20T08:33:15.553Z,21.50
2022-09-20T08:35:43.011Z,21.30
2022-09-20T08:41:03.084Z,21.40
2022-09-20T08:43:45.563Z,21.60
2022-09-20T08:46:22.896Z,21.90
2022-09-20T08:48:50.866Z,22.10
2022-09-20T08:51:23.171Z,21.80
2022-09-20T08:53:54.430Z,21.70
2022-09-20T08:56:23.019Z,21.90
2022-09-20T08:58:51.450Z,21.80
2022-09-20T09:01:24.656Z,22.00
2022-09-20T09:03:58.206Z,22.20
2022-09-20T09:06:27.262Z,22.60
2022-09-20T09:08:58.395Z,22.70
2022-09-20T09:11:25.965Z,23.00
2022-09-20T09:14:01.720Z,22.80
2022-09-20T09:16:35.394Z,23.20
2022-09-20T09:19:36.800Z,23.70
2022-09-20T09:22:05.670Z,23.80
2022-09-20T09:24:32.958Z,23.50
2022-09-20T09:27:27.025Z,23.20
2022-09-20T09:29:57.027Z,23.20
2022-09-20T09:32:29.252Z,23.10
2022-09-20T09:35:18.922Z,23.30
2022-09-20T09:37:59.162Z,23.40
2022-09-20T09:40:28.489Z,23.40
2022-09-20T09:43:01.802Z,23.40
2022-09-20T09:45:43.414Z,23.50
2022-09-20T09:48:47.545Z,23.60
2022-09-20T09:51:18.464Z,24.00
2022-09-20T09:53:48.766Z,23.60
2022-09-20T09:56:22.959Z,23.50
2022-09-20T09:59:18.184Z,23.90
2022-09-20T10:02:13.130Z,23.50
2022-09-20T10:04:58.832Z,23.80
2022-09-20T10:07:44.257Z,23.90
2022-09-20T10:10:29.860Z,23.90
2022-09-20T10:13:35.063Z,23.90
2022-09-20T10:16:17.735Z,24.20
2022-09-20T10:18:57.252Z,24.50
2022-09-20T10:22:08.416Z,24.40
2022-09-20T10:24:51.651Z,24.00
2022-09-20T10:27:48.473Z,24.10
2022-09-20T10:30:22.519Z,24.30
2022-09-20T10:33:01.500Z,24.60
2022-09-20T10:35:52.905Z,24.50
2022-09-20T10:38:45.900Z,24.60
2022-09-20T10:41:41.908Z,25.30
2022-09-20T10:44:28.466Z,25.50
2022-09-20T10:47:21.175Z,25.40
2022-09-20T10:49:58.132Z,25.20
2022-09-20T10:52:31.846Z,25.60
2022-09-20T10:55:34.837Z,25.80
2022-09-20T10:58:16.375Z,25.40
2022-09-20T11:01:02.805Z,25.40
2022-09-20T11:03:50.010Z,25.00
2022-09-20T11:06:23.067Z,25.10
2022-09-20T11:08:56.040Z,25.60
2022-09-20T11:11:32.163Z,25.90
2022-09-20T11:14:16.501Z,26.00
2022-09-20T11:17:02.075Z,26.40
2022-09-20T11:19:36.061Z,26.00
2022-09-20T11:22:24.162Z,26.10
2022-09-20T11:25:00.456Z,25.80
2022-09-20T11:27:32.913Z,25.80
2022-09-20T11:30:14.008Z,26.20
2022-09-20T11:32:51.387Z,26.60
2022-09-20T11:35:18.739Z,26.90
2022-09-20T11:38:01.885Z,26.60
2022-09-20T11:40:34.950Z,26.50
2022-09-20T11:43:07.327Z,25.60
2022-09-20T11:45:42.554Z,25.50
2022-09-20T11:48:33.238Z,25.60
2022-09-20T11:51:29.875Z,25.80
2022-09-20T11:54:16.317Z,25.30
2022-09-20T11:56:51.845Z,24.70
2022-09-20T11:59:35.104Z,24.40
2022-09-20T12:02:13.044Z,24.60
2022-09-20T12:04:46.508Z,24.50
2022-09-20T12:07:38.502Z,24.10
2022-09-20T12:10:20.865Z,23.90
2022-09-20T12:12:55.093Z,23.90
2022-09-20T12:15:22.556Z,24.20
2022-09-20T12:17:52.545Z,24.80
2022-09-20T12:20:35.140Z,25.30
2022-09-20T12:23:43.123Z,26.10
2022-09-20T12:26:41.701Z,25.80
2022-09-20T12:29:24.298Z,25.30
2022-09-20T12:31:54.838Z,25.00
2022-09-20T12:34:22.794Z,25.00
2022-09-20T12:36:56.370Z,24.70
2022-09-20T12:39:36.173Z,25.10
2022-09-20T12:42:12.269Z,24.60
2022-09-20T12:44:50.395Z,24.40
2022-09-20T12:47:21.298Z,24.60
2022-09-20T12:50:07.292Z,24.60
2022-09-20T12:52:57.557Z,24.80
2022-09-20T12:55:30.463Z,24.80
2022-09-20T12:58:06.674Z,24.70
2022-09-20T13:00:47.200Z,25.10
2022-09-20T13:03:43.940Z,25.00
2022-09-20T13:06:20.613Z,25.00
2022-09-20T13:09:05.455Z,25.00
2022-09-20T13:11:47.731Z,25.00
2022-09-20T13:14:27.431Z,25.20
2022-09-20T13:17:05.662Z,25.10
2022-09-20T13:19:39.188Z,24.80
2022-09-20T13:22:12.433Z,24.80
2022-09-20T13:24:42.623Z,24.80
2022-09-20T13:27:18.979Z,24.10
2022-09-20T13:29:47.482Z,23.80
2022-09-20T13:32:29.032Z,23.80
2022-09-20T13:35:09.512Z,24.00
2022-09-20T13:37:43.106Z,24.30
2022-09-20T13:40:49.986Z,24.40
2022-09-20T13:43:33.926Z,24.20
2022-09-20T13:46:08.100Z,24.10
2022-09-20T13:48:35.965Z,24.20
2022-09-20T13:51:03.610Z,24.40
2022-09-20T13:53:46.598Z,24.40
2022-09-20T13:56:23.217Z,24.00
2022-09-20T13:58:52.941Z,23.90
2022-09-20T14:01:32.520Z,23.90
2022-09-20T14:04:16.375Z,24.00
2022-09-20T14:06:45.132Z,24.10
2022-09-20T14:09:35.409Z,24.30
2022-09-20T14:12:06.468Z,24.40
2022-09-20T14:14:35.498Z,24.50
2022-09-20T14:17:07.864Z,24.60
2022-09-20T14:19:41.214Z,24.60
2022-09-20T14:22:16.057Z,24.40
2022-09-20T14:25:18.792Z,24.60
2022-09-20T14:27:46.589Z,24.70
2022-09-20T14:30:43.316Z,24.10
2022-09-20T14:33:21.812Z,23.80
2022-09-20T14:35:52.895Z,23.60
2022-09-20T14:38:25.507Z,23.60
2022-09-20T14:40:53.102Z,23.90
2022-09-20T14:50:45.200Z,23.40
2022-09-20T15:13:12.682Z,23.00
2022-09-20T15:15:42.108Z,22.80
2022-09-20T15:18:26.636Z,22.70
2022-09-20T15:20:55.419Z,22.70
2022-09-20T15:23:22.843Z,22.60
2022-09-20T15:25:52.186Z,22.60
2022-09-20T15:28:20.577Z,22.60
2022-09-20T15:30:52.399Z,22.50
2022-09-20T15:33:22.348Z,22.50
2022-09-20T15:35:50.814Z,22.50
2022-09-20T15:38:24.311Z,22.50
2022-09-20T15:40:51.734Z,22.50
2022-09-20T15:43:24.304Z,22.50
2022-09-20T15:45:55.912Z,22.50
2022-09-20T15:48:31.136Z,22.40
2022-09-20T15:51:11.033Z,22.40
2022-09-20T15:53:45.298Z,22.40
2022-09-20T15:56:22.259Z,22.40
2022-09-20T15:58:59.263Z,22.30
2022-09-20T16:01:38.324Z,22.40
2022-09-20T16:04:13.781Z,22.50
2022-09-20T16:06:43.304Z,22.50
2022-09-20T16:09:10.835Z,22.50
2022-09-20T16:11:39.348Z,22.50
2022-09-20T16:14:08.233Z,22.50
2022-09-20T16:16:40.421Z,22.50
2022-09-20T16:19:21.146Z,22.50
2022-09-20T16:21:57.602Z,22.50
2022-09-20T16:24:35.924Z,22.50
2022-09-20T16:27:08.201Z,22.50
2022-09-20T16:29:37.783Z,22.50
2022-09-20T16:32:09.048Z,22.50
2022-09-20T16:34:38.306Z,22.40
2022-09-20T16:37:17.654Z,22.30
2022-09-20T16:39:57.405Z,22.30
2022-09-20T16:42:28.241Z,22.30
2022-09-20T16:44:57.566Z,22.30
2022-09-20T16:47:26.478Z,22.20
2022-09-20T16:49:54.441Z,22.10
2022-09-20T16:52:22.199Z,22.00
2022-09-20T16:54:50.002Z,22.00
2022-09-20T16:57:17.372Z,21.90
2022-09-20T16:59:46.393Z,21.60
2022-09-20T17:02:17.233Z,21.40
2022-09-20T17:04:45.245Z,21.30
2022-09-20T17:07:14.714Z,21.10
2022-09-20T17:09:43.795Z,21.00
2022-09-20T17:12:11.240Z,20.80
2022-09-20T17:14:38.655Z,20.60
2022-09-20T17:17:06.610Z,20.60
2022-09-20T17:19:34.240Z,20.50
2022-09-20T17:22:01.849Z,20.50
2022-09-20T17:24:30.340Z,20.30
2022-09-20T17:26:57.638Z,20.30
2022-09-20T17:29:25.269Z,20.30
2022-09-20T17:31:56.675Z,20.30
2022-09-20T17:34:26.489Z,20.20
2022-09-20T17:36:56.898Z,20.10
2022-09-20T17:39:24.102Z,20.10
2022-09-20T17:41:51.652Z,20.10
2022-09-20T17:44:19.426Z,20.20
2022-09-20T17:46:50.088Z,20.20
2022-09-20T17:49:19.840Z,20.10
2022-09-20T17:51:52.707Z,20.10
2022-09-20T17:54:20.981Z,20.10
2022-09-20T17:56:50.529Z,20.10
2022-09-20T17:59:19.338Z,20.10
2022-09-20T18:01:49.907Z,20.10
2022-09-20T18:04:17.914Z,20.00
2022-09-20T18:06:48.332Z,19.80
2022-09-20T18:09:16.870Z,19.50
2022-09-20T18:11:52.951Z,19.50
2022-09-20T18:14:23.391Z,19.70
2022-09-20T18:16:58.129Z,19.60
2022-09-20T18:19:32.641Z,19.70
2022-09-20T18:22:02.336Z,19.70
2022-09-20T18:24:30.889Z,19.70
2022-09-20T18:26:58.279Z,19.50
2022-09-20T18:29:25.526Z,19.50
2022-09-20T18:31:58.121Z,19.50
2022-09-20T18:34:31.301Z,19.50
2022-09-20T18:37:00.681Z,19.50
2022-09-20T18:39:31.168Z,19.50
2022-09-20T18:41:59.406Z,19.50
2022-09-20T18:44:28.466Z,19.50
2022-09-20T18:46:55.810Z,19.40
2022-09-20T18:49:23.330Z,19.40
2022-09-20T18:51:51.356Z,19.30
2022-09-20T18:54:19.253Z,19.30
2022-09-20T18:56:49.556Z,19.30
2022-09-20T18:59:25.527Z,19.40
2022-09-20T19:02:08.205Z,19.40
2022-09-20T19:04:47.868Z,19.50
2022-09-20T19:07:17.949Z,19.50
2022-09-20T19:10:06.853Z,19.50
2022-09-20T19:13:02.272Z,19.40
2022-09-20T19:16:07.234Z,19.40
2022-09-20T19:19:25.990Z,19.30
2022-09-20T19:22:37.224Z,19.40
2022-09-20T19:25:53.683Z,19.30
2022-09-20T19:28:21.825Z,19.30
2022-09-20T19:30:52.206Z,19.40
2022-09-20T19:33:19.449Z,19.40
2022-09-20T19:35:50.210Z,19.50
2022-09-20T19:38:35.384Z,19.50
2022-09-20T19:41:19.406Z,19.50
2022-09-20T19:44:18.415Z,19.40
2022-09-20T19:47:09.694Z,19.40
2022-09-20T19:49:47.568Z,19.40
2022-09-20T19:52:15.431Z,19.40
2022-09-20T19:54:47.046Z,19.40
2022-09-20T19:57:23.206Z,19.40
2022-09-20T19:59:51.329Z,19.40
2022-09-20T20:02:18.927Z,19.40
2022-09-20T20:04:47.233Z,19.30
2022-09-20T20:07:52.263Z,19.30
2022-09-20T20:10:44.346Z,19.20
2022-09-20T20:13:38.219Z,19.10
2022-09-20T20:16:12.333Z,19.10
2022-09-20T20:19:01.665Z,19.10
2022-09-20T20:21:53.989Z,19.20
2022-09-20T20:24:44.600Z,19.10
2022-09-20T20:27:13.214Z,19.20
2022-09-20T20:29:41.360Z,19.20
2022-09-20T20:32:08.856Z,19.10
2022-09-20T20:34:37.212Z,19.10
2022-09-20T20:37:05.265Z,19.10
2022-09-20T20:39:33.225Z,19.10
2022-09-20T20:42:03.570Z,19.10
2022-09-20T20:44:33.808Z,19.20
2022-09-20T20:47:05.012Z,19.20
2022-09-20T20:49:33.320Z,19.10
2022-09-20T20:52:04.935Z,19.00
2022-09-20T20:54:33.071Z,19.00
2022-09-20T20:57:00.783Z,19.00
2022-09-20T20:59:28.160Z,19.00
2022-09-20T21:01:56.243Z,19.00
2022-09-20T21:04:25.407Z,19.10
2022-09-20T21:06:52.695Z,19.10
2022-09-20T21:09:20.002Z,19.00
2022-09-20T21:11:48.588Z,18.90
2022-09-20T21:14:16.681Z,18.80
2022-09-20T21:16:44.518Z,18.80
2022-09-20T21:19:16.318Z,18.70
2022-09-20T21:21:46.143Z,18.70
2022-09-20T21:24:17.526Z,18.50
2022-09-20T21:26:48.995Z,18.50
2022-09-20T21:29:17.362Z,18.40
2022-09-20T21:31:47.359Z,18.40
2022-09-20T21:34:17.364Z,18.30
2022-09-20T21:36:46.031Z,18.30
2022-09-20T21:39:13.692Z,18.20
2022-09-20T21:41:41.697Z,18.20
2022-09-20T21:44:12.470Z,18.20
2022-09-20T21:46:41.844Z,17.90
2022-09-20T21:49:11.186Z,17.70
2022-09-20T21:51:40.408Z,17.60
2022-09-20T21:54:08.994Z,17.50
2022-09-20T21:56:38.125Z,17.50
2022-09-20T21:59:07.851Z,17.50
2022-09-20T22:01:40.481Z,17.50
2022-09-20T22:04:10.272Z,17.50
2022-09-20T22:06:40.213Z,17.60
2022-09-20T22:09:13.376Z,17.60
2022-09-20T22:11:49.085Z,17.50
2022-09-20T22:14:19.848Z,17.50
2022-09-20T22:16:49.235Z,17.50
2022-09-20T22:19:17.886Z,17.50
2022-09-20T22:21:48.535Z,17.50
2022-09-20T22:24:17.126Z,17.50
2022-09-20T22:26:50.348Z,17.50
2022-09-20T22:29:18.733Z,17.50
2022-09-20T22:31:49.006Z,17.40
2022-09-20T22:34:21.671Z,17.40
2022-09-20T22:36:49.736Z,17.20
2022-09-20T22:39:17.460Z,17.10
2022-09-20T22:41:45.855Z,17.20
2022-09-20T22:44:13.360Z,17.20
2022-09-20T22:46:40.975Z,17.20
2022-09-20T22:49:09.648Z,17.00
2022-09-20T22:51:37.710Z,17.00
2022-09-20T22:54:08.768Z,16.90
2022-09-20T22:56:37.185Z,16.90
2022-09-20T22:59:07.322Z,16.90
2022-09-20T23:01:37.007Z,17.00
2022-09-20T23:04:08.351Z,17.00
2022-09-20T23:06:49.276Z,17.00
2022-09-20T23:09:18.277Z,16.90
2022-09-20T23:11:46.086Z,16.90
2022-09-20T23:14:18.003Z,16.90
2022-09-20T23:16:45.663Z,16.80
2022-09-20T23:19:13.709Z,16.80
2022-09-20T23:21:42.321Z,16.80
2022-09-20T23:24:11.687Z,16.80
2022-09-20T23:27:19.383Z,16.60
2022-09-20T23:29:47.210Z,16.40
2022-09-20T23:32:14.685Z,16.40
2022-09-20T23:34:42.494Z,16.50
2022-09-20T23:37:10.017Z,16.60
2022-09-20T23:39:37.337Z,16.70
2022-09-20T23:42:05.108Z,16.70
2022-09-20T23:44:32.621Z,16.60
2022-09-20T23:47:00.137Z,16.40
2022-09-20T23:49:27.730Z,16.40
2022-09-20T23:51:55.037Z,16.50
2022-09-20T23:54:22.445Z,16.60
2022-09-20T23:56:49.880Z,16.70
2022-09-20T23:59:17.855Z,16.80
